Details From ZSAM - Gaoqi
To VTSP - Phuket Intl
Flight Number -
Tags Generated
Created
Modified
Stats Distance 1,505 nm / 2,787 km
Max Altitude 0 ft / 0 m
Waypoints 5
Social Downloads 1
Likes 0
Share VATSIM

Download

Looking for another format? Having issues loading an existing format? Contact us
Advertisement - Login to hide

Notes

Generated

Route

ZSAM KILOG HUE PUT VTSP

ID Type Via Altitude Latitude Longitude Leg Dist Tot Dist Heading (true) Name
O ZSAM APT - 0 ft / 0 m 24.53459˚ 118.11452˚ - 0 nm - -
KILOG FIX - 0 ft / 0 m 21.87417˚ 114.69361˚ 247 nm 247 nm 230° / 229° -
HUE VOR - 0 ft / 0 m 16.40111˚ 107.70278˚ 514 nm 762 nm 232° / 229° PHUBAI VOR-DME
PUT VOR - 0 ft / 0 m 8.11523˚ 98.30630˚ 742 nm 1504 nm 229° / 227° PHUKET VOR-DME
O VTSP APT - 0 ft / 0 m 8.11189˚ 98.30327˚ 0 nm 1504 nm 222° / 222° -

Altitude Profile

Advertisement - Login to hide

Weather


0- 5 10 15 20 25 30 35+ Temperature / ° C

Clouds and Precipitation
Forecast for 2017-12-18 12:00 UTC. Updated 2 hours ago

Ground ~20,000 ft ~40,000 ft Winds

ZSAM

Details ICAO ZSAM (XMN)
Name GAOQI
Region China
Timezone Asia/Shanghai (UTC+8.0)
Stats Elevation 59 ft / 18 m (AMSL)
Location 24.544000° 118.127742°
Runways 1
Magnetic Variation 3.903° W

METAR

ZSAM 181300Z 05004MPS 9999 SCT050 15/06 Q1026 NOSIG

Decode

TAF

Not found

Departure Runways

ID Width Length Bearing (true) Bearing (mag) Surface Threshold Offset Overrun Length
05 148 ft / 45 m 11,147 ft / 3,398 m 51.96° 55.86° Asphalt 490 ft / 149 m 110 ft / 34 m
23 148 ft / 45 m 11,147 ft / 3,398 m 231.97° 235.87° Asphalt 660 ft / 201 m 190 ft / 58 m

VTSP

Details ICAO VTSP (HKT)
Name Phuket Intl
Region Thailand
Timezone Asia/Bangkok (UTC+7.0)
Stats Elevation 82 ft / 25 m (AMSL)
Location 8.113199° 98.316871°
Runways 1
Magnetic Variation 0.433° W

METAR

VTSP 181300Z 08010KT 9999 FEW025 26/20 Q1013 NOSIG

Decode

TAF

TAF VTSP 181100Z 1812/1918 08008KT 9000 FEW020 BECMG 1902/1904 08012KT 9999

Decode

Destination Runways

ID Width Length Bearing (true) Bearing (mag) Surface Threshold Offset Overrun Length
09 148 ft / 45 m 9,870 ft / 3,008 m 84.45° 84.88° Asphalt 0 ft / 0 m 197 ft / 60 m
27 148 ft / 45 m 9,870 ft / 3,008 m 264.46° 264.89° Asphalt 0 ft / 0 m 197 ft / 60 m

Approach Navaids

Runway Type Ident Frequency Range Bearing (true) Bearing (mag) Slope Elevation
27 Localiser IPKT 109.90 MHz 18 nm / 33 km 263.45° 263.89° - 19 ft / 6 m (AMSL)
27 Glidescope IPKT 109.90 MHz 10 nm / 19 km 263.45° 263.89° 3.20° 82 ft / 25 m (AMSL)
27 DME IPKT 109.90 MHz 18 nm / 33 km - - - 82 ft / 25 m (AMSL)